createdAt,value
2019-05-23T00:00:52.415Z,5.50
2019-05-23T00:03:24.154Z,5.50
2019-05-23T00:06:03.970Z,5.50
2019-05-23T00:08:34.020Z,5.50
2019-05-23T00:11:22.089Z,5.50
2019-05-23T00:14:00.916Z,5.50
2019-05-23T00:16:30.837Z,5.50
2019-05-23T00:19:00.421Z,5.40
2019-05-23T00:21:30.546Z,5.40
2019-05-23T00:24:00.097Z,5.40
2019-05-23T00:26:30.014Z,5.40
2019-05-23T00:29:09.694Z,5.40
2019-05-23T00:31:45.295Z,5.40
2019-05-23T00:34:15.205Z,5.40
2019-05-23T00:36:44.368Z,5.40
2019-05-23T00:39:14.469Z,5.40
2019-05-23T00:41:45.295Z,5.40
2019-05-23T00:44:15.802Z,5.40
2019-05-23T00:46:45.340Z,5.40
2019-05-23T00:49:16.002Z,5.40
2019-05-23T00:51:46.177Z,5.30
2019-05-23T00:54:15.695Z,5.30
2019-05-23T00:56:45.346Z,5.20
2019-05-23T00:59:26.448Z,5.20
2019-05-23T01:01:48.629Z,5.20
2019-05-23T01:04:18.102Z,5.20
2019-05-23T01:06:48.430Z,5.10
2019-05-23T01:09:17.780Z,5.10
2019-05-23T01:11:47.477Z,5.10
2019-05-23T01:14:23.301Z,5.00
2019-05-23T01:16:53.699Z,5.00
2019-05-23T01:19:22.772Z,5.00
2019-05-23T01:22:00.503Z,4.90
2019-05-23T01:24:34.245Z,4.90
2019-05-23T01:27:04.486Z,4.80
2019-05-23T01:29:39.641Z,4.80
2019-05-23T01:32:31.958Z,4.80
2019-05-23T01:35:02.863Z,4.80
2019-05-23T01:37:31.890Z,4.70
2019-05-23T01:40:01.930Z,4.70
2019-05-23T01:42:30.985Z,4.70
2019-05-23T01:45:02.589Z,4.60
2019-05-23T01:47:32.284Z,4.60
2019-05-23T01:50:01.958Z,4.60
2019-05-23T01:52:31.535Z,4.60
2019-05-23T01:55:00.705Z,4.60
2019-05-23T01:57:30.151Z,4.60
2019-05-23T02:00:10.080Z,4.50
2019-05-23T02:02:30.884Z,4.50
2019-05-23T02:05:00.434Z,4.40
2019-05-23T02:07:30.125Z,4.40
2019-05-23T02:09:59.253Z,4.40
2019-05-23T02:12:28.794Z,4.40
2019-05-23T02:14:59.450Z,4.30
2019-05-23T02:17:28.474Z,4.30
2019-05-23T02:19:58.006Z,4.30
2019-05-23T02:22:27.395Z,4.30
2019-05-23T02:24:57.028Z,4.20
2019-05-23T02:27:26.711Z,4.20
2019-05-23T02:29:55.743Z,4.20
2019-05-23T02:32:25.770Z,4.20
2019-05-23T02:34:55.682Z,4.20
2019-05-23T02:37:42.012Z,4.10
2019-05-23T02:40:17.808Z,4.10
2019-05-23T02:42:52.461Z,4.10
2019-05-23T02:45:28.513Z,4.00
2019-05-23T02:47:58.123Z,4.00
2019-05-23T02:50:40.190Z,4.00
2019-05-23T02:53:12.623Z,4.00
2019-05-23T02:55:42.243Z,3.90
2019-05-23T02:58:20.589Z,3.90
2019-05-23T03:01:20.026Z,3.90
2019-05-23T03:03:51.051Z,3.80
2019-05-23T03:06:21.134Z,3.80
2019-05-23T03:08:52.235Z,3.80
2019-05-23T03:11:39.790Z,3.80
2019-05-23T03:14:11.515Z,3.80
2019-05-23T03:16:43.555Z,3.80
2019-05-23T03:19:23.092Z,3.70
2019-05-23T03:21:55.159Z,3.70
2019-05-23T03:24:26.487Z,3.70
2019-05-23T03:27:07.731Z,3.70
2019-05-23T03:29:57.648Z,3.70
2019-05-23T03:32:43.808Z,3.70
2019-05-23T03:35:30.883Z,3.60
2019-05-23T03:38:02.251Z,3.60
2019-05-23T03:40:31.835Z,3.60
2019-05-23T03:43:01.267Z,3.60
2019-05-23T03:45:32.875Z,3.60
2019-05-23T03:48:02.937Z,3.70
2019-05-23T03:50:33.012Z,3.70
2019-05-23T03:53:13.642Z,3.70
2019-05-23T03:55:42.980Z,3.70
2019-05-23T03:58:12.716Z,3.70
2019-05-23T04:00:53.030Z,3.80
2019-05-23T04:03:29.509Z,3.80
2019-05-23T04:05:58.728Z,3.80
2019-05-23T04:08:28.216Z,3.90
2019-05-23T04:10:57.664Z,3.90
2019-05-23T04:13:26.680Z,4.00
2019-05-23T04:15:55.619Z,4.00
2019-05-23T04:18:24.901Z,4.00
2019-05-23T04:20:54.207Z,4.10
2019-05-23T04:23:23.084Z,4.20
2019-05-23T04:25:51.986Z,4.20
2019-05-23T04:28:21.607Z,4.20
2019-05-23T04:30:50.626Z,4.30
2019-05-23T04:33:19.481Z,4.40
2019-05-23T04:35:48.607Z,4.40
2019-05-23T04:38:17.564Z,4.50
2019-05-23T04:40:46.347Z,4.60
2019-05-23T04:43:15.411Z,4.70
2019-05-23T04:45:44.638Z,4.80
2019-05-23T04:48:13.654Z,4.90
2019-05-23T04:50:42.886Z,5.00
2019-05-23T04:53:12.107Z,5.10
2019-05-23T04:55:42.102Z,5.20
2019-05-23T04:58:11.728Z,5.30
2019-05-23T05:00:46.800Z,5.50
2019-05-23T05:03:18.391Z,5.70
2019-05-23T05:05:47.589Z,6.00
2019-05-23T05:08:22.372Z,6.40
2019-05-23T05:10:51.737Z,7.00
2019-05-23T05:13:20.631Z,7.70
2019-05-23T05:15:49.924Z,8.60
2019-05-23T05:18:19.083Z,9.60
2019-05-23T05:20:48.544Z,10.70
2019-05-23T05:23:17.482Z,11.80
2019-05-23T05:25:46.735Z,12.70
2019-05-23T05:28:15.665Z,13.40
2019-05-23T05:30:44.672Z,14.00
2019-05-23T05:33:13.584Z,14.80
2019-05-23T05:35:43.067Z,15.60
2019-05-23T05:38:12.161Z,16.50
2019-05-23T05:40:41.684Z,17.40
2019-05-23T05:43:10.632Z,18.20
2019-05-23T05:45:39.648Z,19.10
2019-05-23T05:48:08.779Z,20.00
2019-05-23T05:50:38.378Z,20.60
2019-05-23T05:53:09.325Z,21.30
2019-05-23T05:55:38.304Z,22.10
2019-05-23T05:58:07.888Z,22.50
2019-05-23T06:00:51.184Z,22.80
2019-05-23T06:03:20.372Z,23.30
2019-05-23T06:06:11.388Z,23.60
2019-05-23T06:08:42.712Z,23.40
2019-05-23T06:11:12.389Z,23.10
2019-05-23T06:13:41.331Z,22.90
2019-05-23T06:16:10.373Z,23.00
2019-05-23T06:18:39.303Z,23.20
2019-05-23T06:21:10.790Z,23.50
2019-05-23T06:23:39.919Z,23.90
2019-05-23T06:26:09.248Z,24.70
2019-05-23T06:28:39.560Z,25.50
2019-05-23T06:31:09.623Z,26.40
2019-05-23T06:33:39.079Z,27.20
2019-05-23T06:36:08.212Z,27.60
2019-05-23T06:38:37.668Z,28.40
2019-05-23T06:41:06.749Z,29.00
2019-05-23T06:43:37.288Z,29.90
2019-05-23T06:46:06.811Z,30.30
2019-05-23T06:48:36.175Z,30.90
2019-05-23T06:51:05.527Z,31.70
2019-05-23T06:53:34.464Z,32.40
2019-05-23T06:56:03.540Z,33.00
2019-05-23T06:58:32.549Z,33.60
2019-05-23T07:01:01.652Z,34.30
2019-05-23T07:03:41.200Z,34.80
2019-05-23T07:06:02.385Z,35.00
2019-05-23T07:08:31.406Z,33.90
2019-05-23T07:11:00.451Z,32.70
2019-05-23T07:13:31.593Z,31.80
2019-05-23T07:16:00.632Z,32.40
2019-05-23T07:18:29.672Z,33.40
2019-05-23T07:20:58.695Z,34.00
2019-05-23T07:23:27.525Z,35.00
2019-05-23T07:25:56.671Z,35.80
2019-05-23T07:28:25.501Z,36.30
2019-05-23T07:30:55.042Z,36.70
2019-05-23T07:33:24.055Z,36.80
2019-05-23T07:35:53.821Z,37.10
2019-05-23T07:38:22.708Z,37.60
2019-05-23T07:40:52.057Z,37.60
2019-05-23T07:43:21.621Z,37.40
2019-05-23T07:45:57.507Z,37.50
2019-05-23T07:48:27.034Z,38.30
2019-05-23T07:50:56.131Z,38.50
2019-05-23T07:53:35.522Z,39.00
2019-05-23T07:56:06.995Z,38.90
2019-05-23T07:58:36.265Z,39.50
2019-05-23T08:01:07.170Z,39.30
2019-05-23T08:03:40.250Z,39.80
2019-05-23T08:06:09.991Z,39.50
2019-05-23T08:08:38.891Z,40.40
2019-05-23T08:11:07.829Z,40.80
2019-05-23T08:13:37.248Z,41.70
2019-05-23T08:16:06.288Z,41.00
2019-05-23T08:18:35.185Z,40.30
2019-05-23T08:21:04.166Z,40.80
2019-05-23T08:23:33.310Z,41.70
2019-05-23T08:26:02.345Z,41.40
2019-05-23T08:28:32.270Z,42.20
2019-05-23T08:31:01.253Z,41.60
2019-05-23T08:33:30.107Z,41.80
2019-05-23T08:35:58.917Z,42.50
2019-05-23T08:38:29.344Z,42.80
2019-05-23T08:40:58.698Z,43.30
2019-05-23T08:43:27.724Z,42.40
2019-05-23T08:45:56.711Z,42.80
2019-05-23T08:48:25.630Z,42.80
2019-05-23T08:50:55.416Z,42.90
2019-05-23T08:53:25.342Z,42.50
2019-05-23T08:55:54.334Z,43.10
2019-05-23T08:58:23.194Z,44.20
2019-05-23T09:00:52.469Z,44.30
2019-05-23T09:03:22.550Z,43.80
2019-05-23T09:06:11.527Z,43.30
2019-05-23T09:08:41.163Z,44.10
2019-05-23T09:11:11.137Z,44.30
2019-05-23T09:13:40.262Z,42.20
2019-05-23T09:16:10.009Z,40.20
2019-05-23T09:18:38.986Z,40.90
2019-05-23T09:21:08.145Z,40.20
2019-05-23T09:23:37.373Z,39.70
2019-05-23T09:26:06.297Z,40.90
2019-05-23T09:28:35.159Z,41.90
2019-05-23T09:31:04.685Z,43.00
2019-05-23T09:33:33.840Z,44.10
2019-05-23T09:36:02.942Z,43.90
2019-05-23T09:38:31.815Z,44.20
2019-05-23T09:41:00.727Z,45.60
2019-05-23T09:43:29.512Z,45.20
2019-05-23T09:45:58.531Z,44.50
2019-05-23T09:48:27.702Z,45.30
2019-05-23T09:50:59.060Z,46.60
2019-05-23T09:53:28.434Z,47.20
2019-05-23T09:55:57.262Z,46.70
2019-05-23T09:58:26.307Z,46.80
2019-05-23T10:00:55.346Z,45.90
2019-05-23T10:03:24.165Z,45.80
2019-05-23T10:05:54.131Z,46.10
2019-05-23T10:08:23.242Z,46.70
2019-05-23T10:10:52.574Z,45.70
2019-05-23T10:13:37.784Z,45.50
2019-05-23T10:16:01.355Z,45.80
2019-05-23T10:18:30.219Z,43.80
2019-05-23T10:20:59.339Z,39.10
2019-05-23T10:23:28.186Z,38.80
2019-05-23T10:25:57.194Z,38.40
2019-05-23T10:28:26.188Z,39.50
2019-05-23T10:30:55.044Z,36.70
2019-05-23T10:33:23.895Z,34.50
2019-05-23T10:36:00.356Z,32.80
2019-05-23T10:38:23.327Z,33.80
2019-05-23T10:40:52.101Z,37.50
2019-05-23T10:43:21.029Z,39.30
2019-05-23T10:45:49.973Z,41.60
2019-05-23T10:48:18.914Z,44.20
2019-05-23T10:50:47.769Z,45.70
2019-05-23T10:53:16.870Z,46.90
2019-05-23T10:55:45.722Z,46.80
2019-05-23T10:58:16.030Z,42.60
2019-05-23T11:00:47.407Z,39.10
2019-05-23T11:03:17.139Z,35.80
2019-05-23T11:05:46.868Z,35.80
2019-05-23T11:08:16.793Z,39.40
2019-05-23T11:10:46.490Z,39.30
2019-05-23T11:13:15.495Z,41.20
2019-05-23T11:15:44.540Z,39.50
2019-05-23T11:18:13.414Z,41.90
2019-05-23T11:20:42.413Z,39.60
2019-05-23T11:23:13.375Z,37.50
2019-05-23T11:25:42.728Z,41.20
2019-05-23T11:28:11.650Z,42.90
2019-05-23T11:30:48.067Z,44.20
2019-05-23T11:33:17.819Z,45.40
2019-05-23T11:35:46.925Z,43.90
2019-05-23T11:38:15.838Z,40.30
2019-05-23T11:40:44.959Z,41.10
2019-05-23T11:43:13.881Z,42.40
2019-05-23T11:46:05.648Z,42.80
2019-05-23T11:48:34.825Z,42.90
2019-05-23T11:51:03.801Z,40.90
2019-05-23T11:53:33.839Z,37.50
2019-05-23T11:56:02.817Z,35.90
2019-05-23T11:58:32.857Z,35.00
2019-05-23T12:01:37.196Z,34.70
2019-05-23T12:04:10.430Z,36.60
2019-05-23T12:06:55.575Z,37.80
2019-05-23T12:09:16.048Z,38.80
2019-05-23T12:11:45.126Z,38.50
2019-05-23T12:14:14.043Z,38.10
2019-05-23T12:16:43.164Z,37.90
2019-05-23T12:19:12.534Z,37.20
2019-05-23T12:21:41.334Z,34.50
2019-05-23T12:24:10.651Z,34.30
2019-05-23T12:26:39.496Z,33.00
2019-05-23T12:29:08.285Z,32.00
2019-05-23T12:31:37.070Z,31.20
2019-05-23T12:34:06.144Z,30.50
2019-05-23T12:36:35.178Z,31.40
2019-05-23T12:39:06.845Z,31.00
2019-05-23T12:41:35.711Z,30.30
2019-05-23T12:44:05.330Z,29.70
2019-05-23T12:46:34.258Z,28.90
2019-05-23T12:49:21.075Z,28.40
2019-05-23T12:51:50.880Z,28.10
2019-05-23T12:54:19.966Z,27.60
2019-05-23T12:56:49.368Z,27.90
2019-05-23T12:59:18.426Z,28.00
2019-05-23T13:01:49.280Z,28.00
2019-05-23T13:04:18.630Z,27.80
2019-05-23T13:06:47.744Z,27.50
2019-05-23T13:09:16.966Z,27.30
2019-05-23T13:11:45.916Z,27.20
2019-05-23T13:14:14.956Z,27.20
2019-05-23T13:16:44.167Z,27.50
2019-05-23T13:19:13.531Z,27.60
2019-05-23T13:21:42.731Z,27.60
2019-05-23T13:24:11.694Z,27.50
2019-05-23T13:26:40.613Z,27.30
2019-05-23T13:29:10.376Z,27.40
2019-05-23T13:31:39.445Z,27.20
2019-05-23T13:34:08.307Z,27.20
2019-05-23T13:36:37.317Z,27.10
2019-05-23T13:39:10.371Z,27.10
2019-05-23T13:41:39.230Z,27.10
2019-05-23T13:44:08.152Z,27.00
2019-05-23T13:46:37.377Z,26.90
2019-05-23T13:49:06.308Z,26.60
2019-05-23T13:51:35.179Z,26.50
2019-05-23T13:54:04.079Z,26.30
2019-05-23T13:56:33.251Z,26.20
2019-05-23T13:59:02.126Z,25.90
2019-05-23T14:01:31.080Z,25.80
2019-05-23T14:04:00.534Z,25.50
2019-05-23T14:06:29.307Z,25.40
2019-05-23T14:08:58.166Z,25.40
2019-05-23T14:11:27.006Z,25.30
2019-05-23T14:14:00.197Z,25.30
2019-05-23T14:16:28.553Z,25.30
2019-05-23T14:18:57.325Z,25.00
2019-05-23T14:21:27.915Z,24.70
2019-05-23T14:23:57.098Z,24.60
2019-05-23T14:26:27.578Z,24.70
2019-05-23T14:28:56.476Z,24.80
2019-05-23T14:31:25.354Z,24.80
2019-05-23T14:34:10.069Z,24.90
2019-05-23T14:36:57.559Z,24.90
2019-05-23T14:39:34.071Z,24.90
2019-05-23T14:42:08.778Z,24.90
2019-05-23T14:44:37.983Z,24.70
2019-05-23T14:47:29.971Z,24.70
2019-05-23T14:50:15.270Z,24.40
2019-05-23T14:52:45.801Z,24.10
2019-05-23T14:55:15.306Z,24.00
2019-05-23T14:57:44.206Z,24.00
2019-05-23T15:00:14.035Z,24.00
2019-05-23T15:02:42.888Z,24.30
2019-05-23T15:05:12.374Z,24.20
2019-05-23T15:07:41.202Z,24.30
2019-05-23T15:10:10.512Z,24.30
2019-05-23T15:12:39.535Z,24.30
2019-05-23T15:15:08.731Z,24.20
2019-05-23T15:17:37.491Z,23.90
2019-05-23T15:20:07.098Z,23.70
2019-05-23T15:22:36.049Z,23.50
2019-05-23T15:25:05.836Z,23.30
2019-05-23T15:27:34.926Z,23.20
2019-05-23T15:30:04.258Z,23.30
2019-05-23T15:32:33.219Z,23.30
2019-05-23T15:35:02.114Z,23.30
2019-05-23T15:37:30.965Z,23.30
2019-05-23T15:40:00.234Z,23.30
2019-05-23T15:42:29.933Z,23.30
2019-05-23T15:44:59.061Z,23.30
2019-05-23T15:47:31.499Z,23.20
2019-05-23T15:50:06.118Z,23.00
2019-05-23T15:52:45.051Z,22.70
2019-05-23T15:55:29.058Z,22.50
2019-05-23T15:58:03.171Z,22.40
2019-05-23T16:00:51.224Z,22.40
2019-05-23T16:03:39.035Z,22.30
2019-05-23T16:06:10.974Z,22.40
2019-05-23T16:08:40.114Z,22.30
2019-05-23T16:11:09.170Z,22.50
2019-05-23T16:13:38.303Z,22.70
2019-05-23T16:16:07.251Z,22.90
2019-05-23T16:18:36.492Z,22.90
2019-05-23T16:21:05.626Z,23.00
2019-05-23T16:23:34.567Z,22.90
2019-05-23T16:26:03.458Z,22.70
2019-05-23T16:28:32.310Z,22.50
2019-05-23T16:31:01.105Z,22.40
2019-05-23T16:33:30.318Z,22.20
2019-05-23T16:35:59.162Z,22.00
2019-05-23T16:38:28.074Z,22.00
2019-05-23T16:40:56.917Z,22.00
2019-05-23T16:43:26.159Z,22.10
2019-05-23T16:45:54.945Z,22.10
2019-05-23T16:48:23.915Z,21.90
2019-05-23T16:50:53.077Z,21.80
2019-05-23T16:53:22.027Z,21.80
2019-05-23T16:56:06.218Z,21.80
2019-05-23T16:58:44.791Z,21.70
2019-05-23T17:01:33.294Z,21.60
2019-05-23T17:04:15.272Z,21.50
2019-05-23T17:06:50.225Z,21.40
2019-05-23T17:09:41.415Z,21.20
2019-05-23T17:12:28.139Z,21.00
2019-05-23T17:15:12.126Z,20.70
2019-05-23T17:18:02.705Z,20.40
2019-05-23T17:20:47.340Z,20.20
2019-05-23T17:23:41.171Z,20.00
2019-05-23T17:26:21.999Z,19.80
2019-05-23T17:28:53.181Z,19.70
2019-05-23T17:31:25.280Z,19.60
2019-05-23T17:33:54.169Z,19.60
2019-05-23T17:36:23.058Z,19.50
2019-05-23T17:38:52.339Z,19.40
2019-05-23T17:41:21.523Z,19.30
2019-05-23T17:43:50.458Z,19.30
2019-05-23T17:46:19.276Z,19.20
2019-05-23T17:48:48.138Z,19.10
2019-05-23T17:51:17.009Z,19.00
2019-05-23T17:53:45.937Z,18.90
2019-05-23T17:56:14.722Z,18.80
2019-05-23T17:58:43.720Z,18.60
2019-05-23T18:01:13.157Z,18.40
2019-05-23T18:03:42.182Z,18.20
2019-05-23T18:06:11.895Z,18.10
2019-05-23T18:08:41.130Z,17.90
2019-05-23T18:11:10.274Z,17.70
2019-05-23T18:13:39.314Z,17.40
2019-05-23T18:16:11.515Z,17.20
2019-05-23T18:18:40.837Z,16.90
2019-05-23T18:21:09.781Z,16.70
2019-05-23T18:23:39.197Z,16.40
2019-05-23T18:26:08.281Z,16.20
2019-05-23T18:28:37.225Z,16.00
2019-05-23T18:31:17.164Z,15.70
2019-05-23T18:33:46.087Z,15.50
2019-05-23T18:36:15.458Z,15.30
2019-05-23T18:38:44.767Z,15.20
2019-05-23T18:41:13.883Z,15.00
2019-05-23T18:43:43.134Z,14.80
2019-05-23T18:46:20.950Z,14.60
2019-05-23T18:48:49.793Z,14.50
2019-05-23T18:51:18.785Z,14.30
2019-05-23T18:53:47.828Z,14.10
2019-05-23T18:56:17.383Z,14.00
2019-05-23T18:58:46.333Z,13.80
2019-05-23T19:01:24.741Z,13.70
2019-05-23T19:03:55.000Z,13.50
2019-05-23T19:06:23.987Z,13.40
2019-05-23T19:08:53.066Z,13.20
2019-05-23T19:11:22.494Z,13.10
2019-05-23T19:13:51.405Z,13.00
2019-05-23T19:16:20.456Z,12.90
2019-05-23T19:18:49.970Z,12.80
2019-05-23T19:21:19.818Z,12.70
2019-05-23T19:23:48.589Z,12.60
2019-05-23T19:26:18.390Z,12.50
2019-05-23T19:28:47.458Z,12.40
2019-05-23T19:31:16.770Z,12.40
2019-05-23T19:33:46.934Z,12.30
2019-05-23T19:36:16.277Z,12.30
2019-05-23T19:38:45.596Z,12.20
2019-05-23T19:41:14.513Z,12.10
2019-05-23T19:43:43.382Z,11.90
2019-05-23T19:46:12.742Z,11.80
2019-05-23T19:48:42.941Z,11.70
2019-05-23T19:51:11.792Z,11.60
2019-05-23T19:53:41.234Z,11.50
2019-05-23T19:56:10.519Z,11.40
2019-05-23T19:58:39.786Z,11.30
2019-05-23T20:01:09.031Z,11.20
2019-05-23T20:03:38.434Z,11.10
2019-05-23T20:06:09.673Z,11.10
2019-05-23T20:08:39.302Z,11.00
2019-05-23T20:11:08.670Z,10.90
2019-05-23T20:13:37.522Z,10.80
2019-05-23T20:16:07.308Z,10.80
2019-05-23T20:18:36.497Z,10.70
2019-05-23T20:21:05.453Z,10.60
2019-05-23T20:23:34.401Z,10.60
2019-05-23T20:26:07.495Z,10.50
2019-05-23T20:28:34.565Z,10.50
2019-05-23T20:31:04.702Z,10.40
2019-05-23T20:33:33.655Z,10.40
2019-05-23T20:36:06.619Z,10.30
2019-05-23T20:38:35.674Z,10.20
2019-05-23T20:41:04.929Z,10.20
2019-05-23T20:43:33.863Z,10.10
2019-05-23T20:46:02.811Z,10.10
2019-05-23T20:48:32.395Z,10.00
2019-05-23T20:51:01.378Z,10.00
2019-05-23T20:53:30.947Z,9.90
2019-05-23T20:55:59.897Z,9.80
2019-05-23T20:58:29.038Z,9.80
2019-05-23T21:01:02.898Z,9.80
2019-05-23T21:03:34.897Z,9.80
2019-05-23T21:06:03.290Z,9.80
2019-05-23T21:08:32.293Z,9.80
2019-05-23T21:11:01.761Z,9.80
2019-05-23T21:13:30.802Z,9.90
2019-05-23T21:15:59.673Z,10.10
2019-05-23T21:18:28.606Z,10.20
2019-05-23T21:20:57.534Z,10.30
2019-05-23T21:23:26.375Z,10.30
2019-05-23T21:26:02.850Z,10.30
2019-05-23T21:28:31.672Z,10.30
2019-05-23T21:31:00.604Z,10.20
2019-05-23T21:33:29.449Z,10.20
2019-05-23T21:35:58.255Z,10.20
2019-05-23T21:38:27.338Z,10.10
2019-05-23T21:40:56.134Z,10.00
2019-05-23T21:43:24.902Z,9.90
2019-05-23T21:45:53.757Z,9.80
2019-05-23T21:48:23.003Z,9.80
2019-05-23T21:50:52.122Z,9.70
2019-05-23T21:53:20.957Z,9.60
2019-05-23T21:55:49.829Z,9.50
2019-05-23T21:58:18.922Z,9.50
2019-05-23T22:01:26.928Z,9.50
2019-05-23T22:04:13.811Z,9.50
2019-05-23T22:06:46.512Z,9.50
2019-05-23T22:09:15.609Z,9.60
2019-05-23T22:11:44.566Z,9.70
2019-05-23T22:14:13.501Z,9.80
2019-05-23T22:16:42.417Z,9.90
2019-05-23T22:19:14.158Z,9.90
2019-05-23T22:21:42.965Z,10.00
2019-05-23T22:24:11.814Z,10.00
2019-05-23T22:26:40.676Z,10.00
2019-05-23T22:29:09.951Z,9.90
2019-05-23T22:31:38.950Z,9.90
2019-05-23T22:34:13.441Z,9.80
2019-05-23T22:36:42.562Z,9.80
2019-05-23T22:39:11.478Z,9.70
2019-05-23T22:41:40.342Z,9.60
2019-05-23T22:44:09.342Z,9.50
2019-05-23T22:46:38.838Z,9.40
2019-05-23T22:49:07.769Z,9.30
2019-05-23T22:51:36.530Z,9.30
2019-05-23T22:54:05.470Z,9.20
2019-05-23T22:56:34.241Z,9.10
2019-05-23T22:59:03.234Z,9.10
2019-05-23T23:01:32.366Z,8.90
2019-05-23T23:04:01.137Z,8.90
2019-05-23T23:06:30.352Z,8.80
2019-05-23T23:08:59.178Z,8.80
2019-05-23T23:11:28.022Z,8.70
2019-05-23T23:13:57.338Z,8.70
2019-05-23T23:16:26.452Z,8.70
2019-05-23T23:18:55.375Z,8.60
2019-05-23T23:21:24.414Z,8.60
2019-05-23T23:23:53.185Z,8.60
2019-05-23T23:26:22.019Z,8.50
2019-05-23T23:28:50.967Z,8.50
2019-05-23T23:31:19.843Z,8.40
2019-05-23T23:33:48.690Z,8.50
2019-05-23T23:36:17.521Z,8.50
2019-05-23T23:38:46.441Z,8.60
2019-05-23T23:41:15.202Z,8.70
2019-05-23T23:43:58.055Z,8.80
2019-05-23T23:46:32.989Z,8.90
2019-05-23T23:49:19.561Z,9.10
2019-05-23T23:52:06.141Z,9.20
2019-05-23T23:54:52.954Z,9.30
2019-05-23T23:57:40.793Z,9.40
